createdAt,value
2019-05-22T00:00:01.655Z,1.37
2019-05-22T00:02:34.643Z,1.20
2019-05-22T00:05:06.274Z,1.30
2019-05-22T00:07:35.690Z,1.63
2019-05-22T00:10:12.016Z,1.63
2019-05-22T00:12:46.720Z,2.40
2019-05-22T00:15:16.614Z,1.83
2019-05-22T00:17:45.425Z,2.60
2019-05-22T00:20:19.923Z,3.53
2019-05-22T00:22:53.179Z,2.77
2019-05-22T00:25:24.869Z,1.40
2019-05-22T00:27:54.091Z,3.60
2019-05-22T00:30:29.810Z,3.07
2019-05-22T00:33:00.487Z,1.57
2019-05-22T00:35:35.628Z,1.33
2019-05-22T00:38:06.184Z,1.87
2019-05-22T00:40:37.159Z,1.73
2019-05-22T00:43:18.805Z,1.30
2019-05-22T00:45:50.937Z,1.83
2019-05-22T00:48:23.034Z,2.50
2019-05-22T00:51:00.603Z,1.60
2019-05-22T00:53:41.323Z,2.33
2019-05-22T00:56:29.493Z,2.23
2019-05-22T00:59:05.899Z,1.37
2019-05-22T01:01:52.772Z,2.20
2019-05-22T01:04:34.255Z,1.47
2019-05-22T01:07:18.132Z,4.00
2019-05-22T01:09:48.857Z,1.60
2019-05-22T01:12:27.840Z,1.17
2019-05-22T01:14:58.785Z,1.67
2019-05-22T01:17:31.357Z,2.13
2019-05-22T01:20:02.193Z,1.70
2019-05-22T01:22:33.258Z,2.40
2019-05-22T01:25:03.520Z,1.93
2019-05-22T01:27:32.815Z,1.40
2019-05-22T01:30:03.611Z,1.83
2019-05-22T01:32:39.401Z,1.50
2019-05-22T01:35:10.191Z,1.73
2019-05-22T01:37:40.321Z,1.60
2019-05-22T01:40:15.739Z,4.13
2019-05-22T01:42:49.611Z,2.33
2019-05-22T01:45:20.648Z,2.30
2019-05-22T01:47:57.253Z,1.50
2019-05-22T01:50:49.111Z,3.20
2019-05-22T01:53:22.213Z,1.80
2019-05-22T01:55:53.255Z,2.27
2019-05-22T01:58:23.848Z,1.90
2019-05-22T02:00:58.716Z,2.33
2019-05-22T02:03:34.385Z,1.43
2019-05-22T02:06:05.641Z,2.13
2019-05-22T02:08:38.095Z,3.77
2019-05-22T02:11:08.536Z,1.53
2019-05-22T02:13:40.534Z,1.63
2019-05-22T02:16:11.639Z,3.40
2019-05-22T02:18:43.731Z,2.27
2019-05-22T02:21:12.699Z,2.07
2019-05-22T02:23:43.124Z,1.43
2019-05-22T02:26:13.513Z,2.03
2019-05-22T02:28:44.180Z,3.03
2019-05-22T02:31:20.014Z,2.63
2019-05-22T02:33:59.196Z,2.33
2019-05-22T02:36:28.846Z,1.67
2019-05-22T02:38:57.826Z,2.43
2019-05-22T02:41:29.705Z,2.90
2019-05-22T02:44:01.702Z,1.60
2019-05-22T02:46:30.312Z,1.77
2019-05-22T02:49:00.687Z,3.27
2019-05-22T02:51:29.906Z,1.77
2019-05-22T02:54:00.261Z,3.10
2019-05-22T02:56:30.069Z,1.83
2019-05-22T02:59:00.465Z,2.77
2019-05-22T03:01:30.838Z,2.07
2019-05-22T03:04:02.068Z,2.17
2019-05-22T03:09:25.635Z,2.40
2019-05-22T03:12:07.193Z,2.03
2019-05-22T03:14:38.336Z,3.27
2019-05-22T03:17:09.837Z,2.23
2019-05-22T03:19:48.233Z,3.87
2019-05-22T03:22:29.923Z,3.03
2019-05-22T03:25:03.965Z,1.73
2019-05-22T03:27:48.957Z,3.07
2019-05-22T03:30:27.322Z,2.03
2019-05-22T03:32:56.995Z,4.90
2019-05-22T03:35:28.216Z,7.10
2019-05-22T03:38:00.360Z,8.67
2019-05-22T03:40:30.998Z,4.10
2019-05-22T03:43:02.222Z,3.37
2019-05-22T03:45:32.930Z,2.53
2019-05-22T03:48:04.297Z,2.40
2019-05-22T03:50:36.006Z,3.10
2019-05-22T03:53:10.354Z,2.23
2019-05-22T03:55:39.792Z,5.17
2019-05-22T03:58:08.578Z,4.00
2019-05-22T04:00:42.943Z,4.73
2019-05-22T04:03:08.881Z,5.57
2019-05-22T04:05:38.870Z,5.33
2019-05-22T04:08:09.153Z,6.53
2019-05-22T04:10:49.789Z,5.80
2019-05-22T04:13:18.606Z,3.47
2019-05-22T04:15:50.855Z,6.93
2019-05-22T04:18:22.930Z,3.33
2019-05-22T04:20:51.456Z,7.20
2019-05-22T04:23:22.640Z,5.77
2019-05-22T04:25:53.444Z,4.27
2019-05-22T04:28:22.794Z,2.93
2019-05-22T04:30:52.046Z,2.90
2019-05-22T04:33:21.246Z,4.17
2019-05-22T04:35:49.788Z,4.53
2019-05-22T04:38:18.765Z,4.70
2019-05-22T04:40:52.836Z,5.03
2019-05-22T04:43:24.869Z,3.47
2019-05-22T04:45:54.162Z,6.50
2019-05-22T04:48:23.754Z,6.60
2019-05-22T04:50:53.264Z,6.90
2019-05-22T04:53:26.756Z,5.47
2019-05-22T04:55:55.406Z,6.23
2019-05-22T04:58:27.898Z,5.03
2019-05-22T05:00:56.949Z,6.13
2019-05-22T05:03:35.594Z,12.00
2019-05-22T05:09:50.424Z,6.57
2019-05-22T05:12:19.227Z,8.67
2019-05-22T05:14:51.198Z,9.07
2019-05-22T05:17:25.628Z,7.97
2019-05-22T05:19:58.857Z,10.23
2019-05-22T05:22:45.711Z,7.63
2019-05-22T05:25:16.605Z,8.47
2019-05-22T05:27:48.433Z,9.83
2019-05-22T05:30:24.937Z,7.60
2019-05-22T05:32:55.469Z,10.00
2019-05-22T05:35:25.644Z,8.30
2019-05-22T05:37:56.289Z,9.90
2019-05-22T05:40:34.911Z,11.73
2019-05-22T05:43:12.198Z,8.47
2019-05-22T05:45:43.295Z,13.37
2019-05-22T05:48:22.442Z,9.33
2019-05-22T05:51:16.081Z,8.33
2019-05-22T05:54:06.705Z,9.70
2019-05-22T05:56:42.084Z,8.33
2019-05-22T05:59:22.998Z,15.97
2019-05-22T06:01:57.881Z,10.73
2019-05-22T06:04:38.482Z,6.20
2019-05-22T06:07:25.268Z,7.13
2019-05-22T06:10:09.467Z,5.60
2019-05-22T06:12:49.133Z,7.90
2019-05-22T06:15:26.336Z,6.07
2019-05-22T06:18:10.683Z,6.80
2019-05-22T06:20:40.125Z,5.70
2019-05-22T06:23:28.459Z,7.30
2019-05-22T06:25:59.195Z,7.70
2019-05-22T06:28:30.725Z,7.67
2019-05-22T06:31:08.527Z,8.17
2019-05-22T06:33:37.737Z,7.10
2019-05-22T06:36:11.751Z,7.03
2019-05-22T06:38:51.835Z,6.37
2019-05-22T06:41:25.148Z,7.07
2019-05-22T06:44:29.093Z,13.07
2019-05-22T06:47:01.124Z,7.03
2019-05-22T06:49:36.665Z,4.53
2019-05-22T06:52:07.712Z,7.33
2019-05-22T06:54:41.157Z,6.67
2019-05-22T06:57:12.320Z,7.43
2019-05-22T06:59:42.649Z,4.40
2019-05-22T07:02:14.128Z,4.77
2019-05-22T07:04:43.488Z,4.97
2019-05-22T07:07:18.011Z,8.20
2019-05-22T07:09:46.623Z,4.07
2019-05-22T07:12:26.113Z,5.50
2019-05-22T07:15:00.865Z,5.33
2019-05-22T07:17:30.241Z,6.10
2019-05-22T07:19:59.792Z,5.03
2019-05-22T07:22:33.040Z,5.90
2019-05-22T07:25:04.867Z,4.77
2019-05-22T07:27:35.966Z,4.23
2019-05-22T07:30:08.000Z,6.83
2019-05-22T07:32:38.018Z,7.10
2019-05-22T07:35:10.385Z,19.67
2019-05-22T07:37:46.982Z,6.17
2019-05-22T07:40:18.671Z,5.23
2019-05-22T07:42:47.952Z,7.83
2019-05-22T07:45:17.248Z,11.90
2019-05-22T07:47:46.792Z,8.30
2019-05-22T07:50:16.562Z,7.07
2019-05-22T07:52:45.509Z,9.97
2019-05-22T07:55:38.204Z,7.00
2019-05-22T07:58:19.185Z,9.93
2019-05-22T08:01:00.674Z,6.27
2019-05-22T08:04:15.661Z,14.10
2019-05-22T08:07:26.686Z,9.43
2019-05-22T08:13:38.376Z,5.93
2019-05-22T08:19:29.388Z,6.60
2019-05-22T08:22:38.702Z,4.57
2019-05-22T08:28:37.283Z,10.53
2019-05-22T08:34:22.593Z,9.27
2019-05-22T08:36:56.768Z,7.67
2019-05-22T08:43:16.167Z,5.53
2019-05-22T08:46:44.670Z,7.77
2019-05-22T09:30:18.069Z,11.40
2019-05-22T09:36:41.548Z,6.00
2019-05-22T09:59:26.632Z,2.43
2019-05-22T10:19:14.256Z,3.57
2019-05-22T10:25:22.933Z,3.23
2019-05-22T10:42:44.975Z,1.00
2019-05-22T10:52:00.785Z,3.87
2019-05-22T11:16:46.931Z,9.13
2019-05-22T11:19:35.735Z,5.43
2019-05-22T11:22:18.682Z,1.03
2019-05-22T11:34:40.302Z,8.33
2019-05-22T11:40:18.103Z,0.73
2019-05-22T11:42:47.162Z,1.40
2019-05-22T11:45:36.929Z,4.60
2019-05-22T11:48:11.311Z,2.30
2019-05-22T11:50:49.909Z,1.97
2019-05-22T11:53:25.816Z,2.43
2019-05-22T11:56:07.474Z,1.20
2019-05-22T11:58:38.069Z,2.47
2019-05-22T12:01:22.890Z,1.73
2019-05-22T12:03:56.061Z,0.70
2019-05-22T12:06:40.971Z,9.57
2019-05-22T12:09:17.621Z,2.70
2019-05-22T12:11:52.309Z,1.43
2019-05-22T12:14:34.075Z,3.07
2019-05-22T12:17:14.091Z,2.00
2019-05-22T12:19:53.187Z,3.23
2019-05-22T12:25:19.607Z,3.37
2019-05-22T12:27:53.126Z,2.93
2019-05-22T12:30:23.125Z,3.93
2019-05-22T12:33:03.368Z,1.73
2019-05-22T12:35:32.557Z,1.67
2019-05-22T12:40:59.229Z,1.47
2019-05-22T12:43:37.422Z,0.83
2019-05-22T12:46:08.435Z,3.60
2019-05-22T12:48:40.605Z,0.27
2019-05-22T12:51:16.448Z,1.03
2019-05-22T12:54:13.291Z,1.40
2019-05-22T13:01:18.908Z,3.33
2019-05-22T13:07:53.264Z,6.60
2019-05-22T14:15:15.698Z,1.93
2019-05-22T14:31:23.091Z,1.10
2019-05-22T14:56:20.813Z,0.47
2019-05-22T15:08:39.750Z,0.93
2019-05-22T15:11:13.186Z,2.47
2019-05-22T15:13:48.222Z,2.73
2019-05-22T15:16:31.487Z,1.47
2019-05-22T15:19:02.052Z,1.33
2019-05-22T15:21:41.208Z,0.83
2019-05-22T15:24:13.017Z,2.17
2019-05-22T15:26:50.677Z,0.30
2019-05-22T15:29:30.031Z,6.10
2019-05-22T15:32:02.926Z,1.07
2019-05-22T15:34:37.413Z,1.13
2019-05-22T15:37:16.300Z,1.97
2019-05-22T15:42:49.596Z,0.30
2019-05-22T15:45:24.503Z,1.53
2019-05-22T15:47:57.516Z,0.97
2019-05-22T15:50:38.589Z,1.70
2019-05-22T15:53:15.036Z,2.10
2019-05-22T15:55:45.358Z,2.20
2019-05-22T15:58:20.254Z,1.63
2019-05-22T16:00:56.820Z,0.87
2019-05-22T16:03:31.754Z,0.73
2019-05-22T16:06:18.111Z,1.37
2019-05-22T16:08:50.917Z,1.17
2019-05-22T16:11:28.996Z,1.30
2019-05-22T16:14:11.382Z,1.97
2019-05-22T16:16:47.008Z,0.20
2019-05-22T16:19:20.870Z,1.63
2019-05-22T16:21:57.569Z,0.83
2019-05-22T16:24:30.287Z,0.70
2019-05-22T16:26:59.238Z,2.07
2019-05-22T16:29:28.448Z,0.73
2019-05-22T16:32:00.729Z,0.20
2019-05-22T16:34:30.071Z,1.03
2019-05-22T16:37:03.422Z,2.40
2019-05-22T16:39:31.045Z,1.90
2019-05-22T16:42:00.777Z,0.40
2019-05-22T16:44:29.638Z,1.10
2019-05-22T16:47:04.097Z,0.53
2019-05-22T16:49:32.818Z,0.40
2019-05-22T16:52:03.965Z,1.27
2019-05-22T16:54:33.519Z,1.00
2019-05-22T16:57:04.090Z,0.77
2019-05-22T16:59:36.707Z,0.30
2019-05-22T17:02:06.813Z,0.43
2019-05-22T17:04:50.468Z,1.13
2019-05-22T17:07:28.037Z,3.43
2019-05-22T17:09:55.896Z,0.30
2019-05-22T17:12:26.039Z,0.30
2019-05-22T17:14:55.798Z,1.10
2019-05-22T17:17:27.005Z,0.63
2019-05-22T17:19:57.043Z,1.20
2019-05-22T17:22:26.111Z,1.13
2019-05-22T17:24:56.504Z,1.47
2019-05-22T17:27:25.224Z,3.90
2019-05-22T17:29:54.156Z,1.47
2019-05-22T17:32:26.927Z,0.57
2019-05-22T17:34:58.400Z,0.67
2019-05-22T17:37:28.609Z,0.20
2019-05-22T17:39:57.568Z,0.20
2019-05-22T17:42:29.217Z,0.63
2019-05-22T17:44:58.513Z,0.70
2019-05-22T17:47:30.578Z,1.00
2019-05-22T17:50:01.585Z,0.80
2019-05-22T17:52:31.417Z,0.47
2019-05-22T17:55:00.559Z,0.40
2019-05-22T17:57:30.515Z,0.20
2019-05-22T18:00:02.931Z,1.57
2019-05-22T18:02:33.286Z,0.40
2019-05-22T18:05:02.396Z,0.43
2019-05-22T18:07:34.109Z,2.50
2019-05-22T18:10:02.883Z,0.77
2019-05-22T18:12:32.296Z,2.80
2019-05-22T18:15:01.139Z,1.47
2019-05-22T18:17:30.221Z,1.30
2019-05-22T18:19:58.891Z,0.17
2019-05-22T18:22:29.031Z,0.83
2019-05-22T18:25:01.801Z,2.20
2019-05-22T18:27:32.482Z,0.40
2019-05-22T18:30:01.077Z,1.20
2019-05-22T18:32:31.693Z,1.17
2019-05-22T18:35:00.591Z,2.07
2019-05-22T18:37:30.102Z,3.53
2019-05-22T18:40:02.115Z,1.43
2019-05-22T18:42:30.954Z,1.13
2019-05-22T18:44:59.560Z,1.77
2019-05-22T18:47:28.348Z,0.97
2019-05-22T18:49:56.909Z,3.20
2019-05-22T18:52:40.727Z,1.90
2019-05-22T18:55:00.672Z,0.77
2019-05-22T18:57:29.349Z,0.93
2019-05-22T19:00:05.632Z,2.67
2019-05-22T19:02:32.614Z,0.60
2019-05-22T19:05:02.073Z,0.50
2019-05-22T19:07:32.270Z,0.30
2019-05-22T19:10:00.966Z,0.90
2019-05-22T19:12:29.773Z,0.97
2019-05-22T19:15:01.047Z,0.80
2019-05-22T19:17:30.915Z,0.67
2019-05-22T19:20:03.029Z,0.20
2019-05-22T19:22:31.697Z,0.87
2019-05-22T19:25:04.514Z,2.93
2019-05-22T19:27:33.456Z,2.40
2019-05-22T19:30:02.215Z,4.37
2019-05-22T19:32:34.023Z,0.20
2019-05-22T19:35:02.640Z,1.43
2019-05-22T19:37:31.737Z,0.47
2019-05-22T19:40:01.193Z,0.63
2019-05-22T19:42:30.873Z,0.60
2019-05-22T19:44:59.392Z,0.47
2019-05-22T19:47:30.988Z,0.43
2019-05-22T19:50:00.194Z,0.47
2019-05-22T19:52:41.397Z,0.93
2019-05-22T19:55:07.132Z,3.20
2019-05-22T19:57:35.883Z,4.50
2019-05-22T20:00:07.928Z,0.50
2019-05-22T20:02:39.510Z,0.77
2019-05-22T20:05:12.448Z,0.40
2019-05-22T20:07:44.756Z,1.33
2019-05-22T20:10:15.388Z,0.80
2019-05-22T20:12:46.427Z,5.93
2019-05-22T20:15:15.701Z,1.70
2019-05-22T20:17:54.546Z,0.40
2019-05-22T20:20:24.349Z,0.67
2019-05-22T20:22:53.115Z,2.07
2019-05-22T20:25:24.063Z,1.73
2019-05-22T20:27:53.179Z,1.30
2019-05-22T20:30:26.782Z,4.37
2019-05-22T20:32:58.302Z,4.13
2019-05-22T20:35:27.563Z,1.53
2019-05-22T20:38:00.130Z,3.13
2019-05-22T20:40:28.717Z,0.87
2019-05-22T20:42:59.303Z,5.73
2019-05-22T20:45:32.363Z,1.87
2019-05-22T20:48:08.348Z,0.93
2019-05-22T20:50:37.409Z,2.07
2019-05-22T20:53:07.713Z,0.60
2019-05-22T20:55:40.672Z,0.87
2019-05-22T20:58:10.707Z,1.63
2019-05-22T21:00:41.786Z,2.70
2019-05-22T21:03:11.659Z,0.70
2019-05-22T21:05:42.848Z,0.50
2019-05-22T21:08:16.130Z,1.13
2019-05-22T21:10:47.923Z,0.30
2019-05-22T21:13:20.805Z,0.83
2019-05-22T21:15:52.949Z,1.10
2019-05-22T21:18:24.540Z,0.93
2019-05-22T21:20:56.054Z,0.93
2019-05-22T21:23:29.053Z,2.77
2019-05-22T21:25:57.739Z,0.67
2019-05-22T21:28:27.099Z,0.90
2019-05-22T21:30:55.704Z,2.60
2019-05-22T21:33:27.436Z,1.57
2019-05-22T21:36:00.214Z,2.50
2019-05-22T21:38:34.311Z,2.90
2019-05-22T21:41:04.245Z,0.80
2019-05-22T21:43:33.185Z,3.13
2019-05-22T21:46:02.713Z,1.77
2019-05-22T21:48:34.808Z,0.30
2019-05-22T21:51:03.627Z,1.27
2019-05-22T21:53:36.847Z,2.03
2019-05-22T21:56:06.446Z,0.97
2019-05-22T21:58:38.488Z,1.30
2019-05-22T22:01:53.623Z,0.50
2019-05-22T22:04:25.077Z,0.80
2019-05-22T22:06:56.809Z,1.10
2019-05-22T22:09:27.116Z,1.73
2019-05-22T22:11:56.212Z,0.40
2019-05-22T22:14:25.958Z,0.87
2019-05-22T22:16:55.709Z,1.50
2019-05-22T22:19:25.496Z,2.00
2019-05-22T22:21:55.209Z,0.50
2019-05-22T22:24:24.056Z,0.87
2019-05-22T22:26:54.655Z,0.60
2019-05-22T22:29:31.945Z,2.00
2019-05-22T22:32:02.795Z,0.97
2019-05-22T22:34:37.299Z,1.47
2019-05-22T22:37:06.954Z,1.03
2019-05-22T22:39:37.802Z,0.63
2019-05-22T22:42:08.012Z,0.50
2019-05-22T22:44:37.393Z,2.83
2019-05-22T22:47:11.374Z,0.80
2019-05-22T22:49:40.372Z,1.57
2019-05-22T22:52:12.201Z,0.47
2019-05-22T22:54:43.261Z,1.23
2019-05-22T22:57:14.080Z,1.20
2019-05-22T22:59:42.812Z,0.60
2019-05-22T23:02:14.407Z,0.80
2019-05-22T23:04:45.161Z,1.63
2019-05-22T23:07:16.271Z,1.63
2019-05-22T23:09:47.616Z,3.67
2019-05-22T23:12:18.525Z,1.00
2019-05-22T23:14:52.711Z,1.13
2019-05-22T23:17:21.659Z,1.03
2019-05-22T23:19:50.106Z,1.03
2019-05-22T23:22:23.062Z,0.97
2019-05-22T23:24:55.454Z,2.87
2019-05-22T23:27:27.344Z,0.77
2019-05-22T23:29:57.286Z,0.83
2019-05-22T23:32:28.548Z,0.80
2019-05-22T23:34:59.558Z,0.73
2019-05-22T23:37:29.953Z,0.63
2019-05-22T23:40:00.284Z,2.03
2019-05-22T23:42:33.867Z,1.80
2019-05-22T23:45:07.372Z,0.70
2019-05-22T23:47:40.484Z,0.57
2019-05-22T23:50:10.809Z,1.53
2019-05-22T23:52:42.163Z,1.60
2019-05-22T23:55:11.600Z,2.53
2019-05-22T23:57:40.550Z,0.60
